Time;durP1;ratioP1;P1;durP2;ratioP2;P2;SDS_P1;SDS_P2;PMS_P1;PMS_P2;Temp;Humidity;BMP_temperature;BMP_pressure;BME280_temperature;BME280_humidity;BME280_pressure;Samples;Min_cycle;Max_cycle;Signal;HPM_P1;HPM_P2
2021/12/24 00:00:32;;;;;;;64.93;24.53;;;;;;;;;;6235760;22;20212;-89
2021/12/24 00:03:39;;;;;;;68.63;22.50;;;;;;;;;;6234296;22;20167;-89
2021/12/24 00:06:44;;;;;;;70.43;22.70;;;;;;;;;;6233415;22;20242;-89
2021/12/24 00:09:50;;;;;;;58.70;22.43;;;;;;;;;;6233773;22;20191;-91
2021/12/24 00:13:00;;;;;;;67.33;23.30;;;;;;;;;;6233348;22;20167;-89
2021/12/24 00:16:11;;;;;;;61.10;23.07;;;;;;;;;;6233832;22;20198;-90
2021/12/24 00:19:23;;;;;;;67.27;22.80;;;;;;;;;;6234234;22;20175;-89
2021/12/24 00:23:00;;;;;;;68.33;23.40;;;;;;;;;;6236216;22;20184;-89
2021/12/24 00:36:15;;;;;;;65.57;23.80;;;;;;;;;;6234362;22;20238;-91
2021/12/24 00:39:20;;;;;;;62.13;22.13;;;;;;;;;;6233845;23;20167;-90
2021/12/24 00:42:26;;;;;;;66.53;22.50;;;;;;;;;;6233627;22;20166;-90
2021/12/24 00:45:32;;;;;;;62.63;23.37;;;;;;;;;;6232858;22;20216;-87
2021/12/24 00:48:37;;;;;;;59.63;22.27;;;;;;;;;;6232653;22;20231;-89
2021/12/24 00:51:55;;;;;;;56.63;21.60;;;;;;;;;;6233653;22;20607;-90
2021/12/24 00:55:06;;;;;;;60.40;22.37;;;;;;;;;;6231694;23;20171;-90
2021/12/24 00:58:11;;;;;;;62.10;22.40;;;;;;;;;;6232703;22;20158;-89
2021/12/24 01:01:18;;;;;;;61.97;23.37;;;;;;;;;;6231706;22;20163;-89
2021/12/24 01:04:24;;;;;;;65.53;23.10;;;;;;;;;;6233490;22;20262;-91
2021/12/24 01:07:31;;;;;;;65.70;22.73;;;;;;;;;;6233560;22;20162;-90
2021/12/24 01:10:37;;;;;;;65.80;23.07;;;;;;;;;;6233964;22;20191;-89
2021/12/24 01:13:43;;;;;;;56.23;21.37;;;;;;;;;;6231889;23;20212;-87
2021/12/24 01:16:55;;;;;;;62.20;22.43;;;;;;;;;;6234271;22;20187;-89
2021/12/24 01:20:07;;;;;;;59.80;22.00;;;;;;;;;;6235182;22;20158;-88
2021/12/24 01:23:34;;;;;;;55.03;21.57;;;;;;;;;;6233943;22;20215;-91
2021/12/24 01:26:47;;;;;;;54.40;21.37;;;;;;;;;;6233494;23;20167;-90
2021/12/24 01:30:01;;;;;;;62.10;21.33;;;;;;;;;;6232979;22;20190;-91
2021/12/24 01:40:08;;;;;;;61.37;21.83;;;;;;;;;;6234485;22;20183;-88
2021/12/24 01:43:13;;;;;;;61.57;20.77;;;;;;;;;;6235856;22;20175;-90
2021/12/24 01:46:18;;;;;;;55.33;20.93;;;;;;;;;;6234734;22;20174;-91
2021/12/24 01:49:24;;;;;;;60.60;21.80;;;;;;;;;;6236671;22;20163;-92
2021/12/24 01:52:29;;;;;;;64.33;22.50;;;;;;;;;;6234596;23;20175;-90
2021/12/24 01:55:39;;;;;;;58.50;21.97;;;;;;;;;;6179524;22;20489;-93
2021/12/24 01:58:48;;;;;;;61.13;22.50;;;;;;;;;;6186773;23;20254;-88
2021/12/24 02:01:53;;;;;;;61.87;22.43;;;;;;;;;;6204992;23;20200;-91
2021/12/24 02:04:59;;;;;;;60.93;22.73;;;;;;;;;;6205901;23;20485;-88
2021/12/24 02:08:05;;;;;;;64.47;23.23;;;;;;;;;;6204688;23;20200;-89
2021/12/24 02:11:12;;;;;;;71.30;24.20;;;;;;;;;;6205267;23;20179;-89
2021/12/24 02:14:25;;;;;;;69.33;23.67;;;;;;;;;;6204893;23;20180;-90
2021/12/24 02:49:12;;;;;;;62.03;23.50;;;;;;;;;;6100401;22;1576011;-90
2021/12/24 02:55:41;;;;;;;63.57;22.70;;;;;;;;;;6163242;23;20164;-91
2021/12/24 02:58:49;;;;;;;62.53;22.27;;;;;;;;;;6164554;23;20200;-90
2021/12/24 03:01:55;;;;;;;61.77;22.87;;;;;;;;;;6164215;23;20171;-88
2021/12/24 03:05:02;;;;;;;65.27;24.57;;;;;;;;;;6161995;23;20172;-89
2021/12/24 03:08:08;;;;;;;63.03;21.87;;;;;;;;;;6161573;23;20155;-88
2021/12/24 03:11:13;;;;;;;61.73;23.03;;;;;;;;;;6163188;23;20179;-89
2021/12/24 03:14:20;;;;;;;60.90;22.60;;;;;;;;;;6162890;23;20188;-90
2021/12/24 03:17:26;;;;;;;62.40;22.93;;;;;;;;;;6160940;23;20175;-89
2021/12/24 03:20:34;;;;;;;62.27;22.53;;;;;;;;;;6162604;23;20220;-90
2021/12/24 03:23:44;;;;;;;71.17;23.77;;;;;;;;;;6162224;23;20164;-89
2021/12/24 03:26:50;;;;;;;66.50;23.63;;;;;;;;;;6162279;23;20164;-90
2021/12/24 03:29:57;;;;;;;69.87;22.93;;;;;;;;;;6159543;23;20225;-89
2021/12/24 03:33:02;;;;;;;67.40;22.40;;;;;;;;;;6153354;23;20607;-91
2021/12/24 03:36:09;;;;;;;68.63;22.80;;;;;;;;;;6154104;23;20221;-89
2021/12/24 03:39:17;;;;;;;58.30;22.27;;;;;;;;;;6155209;23;20570;-90
2021/12/24 03:42:23;;;;;;;64.40;22.40;;;;;;;;;;6154812;23;20233;-91
2021/12/24 03:45:36;;;;;;;57.77;22.13;;;;;;;;;;6153112;23;20196;-89
2021/12/24 03:48:48;;;;;;;61.23;23.27;;;;;;;;;;6140460;23;20197;-89
2021/12/24 03:52:02;;;;;;;64.33;23.70;;;;;;;;;;6142379;23;20157;-88
2021/12/24 03:55:06;;;;;;;61.67;22.70;;;;;;;;;;6140577;23;20173;-89
2021/12/24 03:58:13;;;;;;;68.07;23.33;;;;;;;;;;6141768;23;20161;-88
2021/12/24 04:01:38;;;;;;;57.93;21.90;;;;;;;;;;6142054;23;20247;-88
2021/12/24 04:05:02;;;;;;;59.60;21.97;;;;;;;;;;6142203;23;20169;-90
2021/12/24 04:08:30;;;;;;;61.30;21.80;;;;;;;;;;6120005;23;20210;-89
2021/12/24 04:11:58;;;;;;;60.37;22.03;;;;;;;;;;6141821;23;20173;-90
2021/12/24 04:15:03;;;;;;;58.90;20.53;;;;;;;;;;6139605;23;20213;-90
2021/12/24 04:18:15;;;;;;;62.30;23.00;;;;;;;;;;6141346;23;20165;-91
2021/12/24 04:24:54;;;;;;;59.70;22.63;;;;;;;;;;6140506;23;20168;-88
2021/12/24 04:28:00;;;;;;;63.10;21.37;;;;;;;;;;6141120;23;20170;-93
2021/12/24 04:31:06;;;;;;;61.43;22.70;;;;;;;;;;6141879;23;20188;-92
2021/12/24 04:34:13;;;;;;;72.23;23.47;;;;;;;;;;6141526;23;20165;-88
2021/12/24 04:38:02;;;;;;;67.20;23.30;;;;;;;;;;6140634;23;20211;-89
2021/12/24 04:51:28;;;;;;;64.27;23.47;;;;;;;;;;6043947;23;20343;-92
2021/12/24 05:01:41;;;;;;;68.17;23.60;;;;;;;;;;6141726;23;20177;-92
2021/12/24 05:04:54;;;;;;;67.73;24.23;;;;;;;;;;6142304;23;20249;-91
2021/12/24 05:08:15;;;;;;;60.00;22.60;;;;;;;;;;6138698;23;20173;-91
2021/12/24 05:11:23;;;;;;;59.60;23.37;;;;;;;;;;6142751;23;20209;-92
2021/12/24 05:14:31;;;;;;;65.90;23.53;;;;;;;;;;6141737;23;20218;-90
2021/12/24 05:18:04;;;;;;;74.03;23.73;;;;;;;;;;6141669;23;20232;-91
2021/12/24 05:21:35;;;;;;;70.03;24.37;;;;;;;;;;6130831;23;20185;-89
2021/12/24 05:24:42;;;;;;;69.17;24.23;;;;;;;;;;6142675;23;20169;-89
2021/12/24 05:27:51;;;;;;;70.43;24.97;;;;;;;;;;6142624;23;20169;-89
2021/12/24 05:30:59;;;;;;;78.27;23.20;;;;;;;;;;6141837;23;20178;-88
2021/12/24 05:34:05;;;;;;;65.03;23.43;;;;;;;;;;6139455;23;20636;-91
2021/12/24 05:37:10;;;;;;;72.13;23.70;;;;;;;;;;6137728;23;20173;-90
2021/12/24 05:40:15;;;;;;;71.27;24.47;;;;;;;;;;6139090;23;20200;-90
2021/12/24 05:43:21;;;;;;;67.83;23.83;;;;;;;;;;6138801;23;20178;-91
2021/12/24 05:46:29;;;;;;;63.00;22.70;;;;;;;;;;6138474;23;20177;-89
2021/12/24 05:49:53;;;;;;;63.00;23.80;;;;;;;;;;6137029;23;20177;-89
2021/12/24 05:53:30;;;;;;;65.90;25.47;;;;;;;;;;6137926;23;20281;-91
2021/12/24 05:56:55;;;;;;;60.17;24.30;;;;;;;;;;6140809;23;20186;-88
2021/12/24 06:00:04;;;;;;;69.87;24.10;;;;;;;;;;6142164;23;20252;-90
2021/12/24 06:03:19;;;;;;;63.83;23.67;;;;;;;;;;6139346;23;20178;-91
2021/12/24 06:06:24;;;;;;;63.67;23.63;;;;;;;;;;6137356;23;20174;-90
2021/12/24 06:09:29;;;;;;;58.33;23.03;;;;;;;;;;6141514;23;20617;-90
2021/12/24 06:12:34;;;;;;;64.70;22.87;;;;;;;;;;6141444;23;20194;-90
2021/12/24 06:15:44;;;;;;;66.53;23.40;;;;;;;;;;6141052;23;20212;-91
2021/12/24 11:59:07;;;;;;;66.93;27.80;;;;;;;;;;6170164;23;20212;-93
2021/12/24 12:02:33;;;;;;;71.20;29.43;;;;;;;;;;6156188;23;20221;-91
2021/12/24 12:05:41;;;;;;;70.07;28.13;;;;;;;;;;6155791;23;20168;-92
2021/12/24 12:08:46;;;;;;;65.80;27.53;;;;;;;;;;6155709;23;20156;-92
2021/12/24 12:11:58;;;;;;;70.63;29.17;;;;;;;;;;6155396;23;20247;-91
2021/12/24 12:15:21;;;;;;;64.40;29.30;;;;;;;;;;6153533;23;20270;-90
2021/12/24 12:18:32;;;;;;;77.20;28.97;;;;;;;;;;6153297;23;20219;-91
2021/12/24 12:21:40;;;;;;;62.67;26.67;;;;;;;;;;6154054;23;20177;-91
2021/12/24 12:28:07;;;;;;;62.70;26.20;;;;;;;;;;6154238;23;20170;-91
2021/12/24 12:31:21;;;;;;;69.63;29.20;;;;;;;;;;6155109;23;20169;-91
2021/12/24 12:34:45;;;;;;;69.80;29.37;;;;;;;;;;6154894;23;20193;-90
2021/12/24 12:37:56;;;;;;;67.23;26.97;;;;;;;;;;6155724;23;20168;-91
2021/12/24 12:41:26;;;;;;;64.47;27.50;;;;;;;;;;6156188;23;20260;-90
2021/12/24 12:44:32;;;;;;;61.03;27.30;;;;;;;;;;6155966;23;20172;-92
2021/12/24 12:47:51;;;;;;;71.80;29.87;;;;;;;;;;6155656;23;20701;-91
2021/12/24 12:50:57;;;;;;;74.60;29.53;;;;;;;;;;6156769;23;20169;-90
2021/12/24 12:54:21;;;;;;;74.07;28.57;;;;;;;;;;6155370;23;20530;-91
2021/12/24 12:57:29;;;;;;;68.73;28.37;;;;;;;;;;6153400;23;20191;-90
2021/12/24 13:00:34;;;;;;;61.57;25.20;;;;;;;;;;6155443;23;20262;-90
2021/12/24 13:03:59;;;;;;;59.33;26.33;;;;;;;;;;6154891;23;20253;-89
2021/12/24 13:07:06;;;;;;;61.03;26.00;;;;;;;;;;6154975;23;20218;-89
2021/12/24 13:10:12;;;;;;;60.40;25.03;;;;;;;;;;6155288;23;20209;-91
2021/12/24 13:13:18;;;;;;;60.43;25.23;;;;;;;;;;6154540;23;20168;-91
2021/12/24 13:16:28;;;;;;;59.97;24.93;;;;;;;;;;6155804;23;20168;-90
2021/12/24 13:19:58;;;;;;;62.23;24.90;;;;;;;;;;6158241;23;20205;-92
2021/12/24 13:23:03;;;;;;;83.73;34.30;;;;;;;;;;6154871;23;20196;-92
2021/12/24 13:26:10;;;;;;;63.30;25.37;;;;;;;;;;6156650;23;20243;-90
2021/12/24 13:29:17;;;;;;;63.23;25.30;;;;;;;;;;6154361;23;20148;-90
2021/12/24 13:32:23;;;;;;;56.40;24.63;;;;;;;;;;6158245;23;20196;-90
2021/12/24 13:35:30;;;;;;;57.23;24.03;;;;;;;;;;6158491;23;20176;-91
2021/12/24 13:38:35;;;;;;;61.13;25.17;;;;;;;;;;6158327;23;20152;-91
2021/12/24 13:41:42;;;;;;;58.93;24.93;;;;;;;;;;6157429;23;20263;-90
2021/12/24 13:44:49;;;;;;;62.97;26.17;;;;;;;;;;6156348;23;20188;-91
2021/12/24 13:47:59;;;;;;;61.03;26.20;;;;;;;;;;6152996;23;20168;-90
2021/12/24 13:54:33;;;;;;;65.37;28.40;;;;;;;;;;6153299;23;20189;-90
2021/12/24 13:57:39;;;;;;;70.37;29.47;;;;;;;;;;6153105;23;20184;-91
2021/12/24 14:00:49;;;;;;;73.93;31.77;;;;;;;;;;6153380;23;20195;-90
2021/12/24 14:03:56;;;;;;;75.30;32.67;;;;;;;;;;6155847;23;20168;-92
2021/12/24 14:07:01;;;;;;;71.07;29.57;;;;;;;;;;6154998;23;20185;-91
2021/12/24 14:10:20;;;;;;;69.67;29.90;;;;;;;;;;6155311;23;20177;-90
2021/12/24 14:13:29;;;;;;;75.23;32.53;;;;;;;;;;6155443;23;20209;-90
2021/12/24 14:16:43;;;;;;;74.50;32.03;;;;;;;;;;6155786;23;20226;-91
2021/12/24 14:20:04;;;;;;;70.30;31.60;;;;;;;;;;6156486;23;20613;-92
2021/12/24 14:23:16;;;;;;;73.17;31.50;;;;;;;;;;6157867;23;20171;-90
2021/12/24 14:26:21;;;;;;;83.60;33.07;;;;;;;;;;6157566;23;20204;-93
2021/12/24 14:29:29;;;;;;;90.57;34.90;;;;;;;;;;6158581;23;20151;-91
2021/12/24 14:32:37;;;;;;;84.43;35.60;;;;;;;;;;6157168;23;20169;-91
2021/12/24 14:35:44;;;;;;;96.10;36.47;;;;;;;;;;6157907;23;20584;-91
2021/12/24 14:38:52;;;;;;;79.90;31.83;;;;;;;;;;6158306;23;20177;-91
2021/12/24 14:42:17;;;;;;;65.60;27.90;;;;;;;;;;6160505;23;20224;-91
2021/12/24 16:21:30;;;;;;;89.30;36.93;;;;;;;;;;6169291;23;20222;-90
2021/12/24 16:24:36;;;;;;;76.47;32.63;;;;;;;;;;6187658;23;20176;-92
2021/12/24 16:27:42;;;;;;;76.30;30.90;;;;;;;;;;6185578;23;20171;-94
2021/12/24 16:30:47;;;;;;;58.93;26.60;;;;;;;;;;6186205;23;20180;-92
2021/12/24 16:33:53;;;;;;;63.83;27.17;;;;;;;;;;6184645;23;20160;-92
2021/12/24 16:36:59;;;;;;;65.20;25.93;;;;;;;;;;6185601;23;20192;-93
2021/12/24 16:40:06;;;;;;;77.27;30.50;;;;;;;;;;6184804;23;20164;-93
2021/12/24 16:43:12;;;;;;;71.00;28.80;;;;;;;;;;6185863;23;20167;-91
2021/12/24 16:46:18;;;;;;;76.90;32.07;;;;;;;;;;6186714;23;20163;-91
2021/12/24 16:49:25;;;;;;;77.83;32.93;;;;;;;;;;6187701;23;20188;-92
2021/12/24 16:52:32;;;;;;;70.37;30.03;;;;;;;;;;6187136;23;20224;-91
2021/12/24 16:55:41;;;;;;;78.47;32.37;;;;;;;;;;6186060;23;20168;-92
2021/12/24 16:58:46;;;;;;;78.40;32.87;;;;;;;;;;6186002;23;20152;-92
2021/12/24 17:01:52;;;;;;;69.37;30.23;;;;;;;;;;6186504;23;20178;-92
2021/12/24 17:05:00;;;;;;;71.10;29.20;;;;;;;;;;6183660;23;20167;-92
2021/12/24 17:08:07;;;;;;;66.43;28.10;;;;;;;;;;6183324;23;20147;-92
2021/12/24 17:11:14;;;;;;;80.60;32.07;;;;;;;;;;6184653;23;20156;-91
2021/12/24 17:14:22;;;;;;;69.37;30.80;;;;;;;;;;6185427;23;20152;-92
2021/12/24 17:17:28;;;;;;;76.80;31.73;;;;;;;;;;6185608;23;20159;-91
2021/12/24 17:20:33;;;;;;;71.77;30.43;;;;;;;;;;6186262;23;20199;-91
2021/12/24 17:23:43;;;;;;;105.13;42.73;;;;;;;;;;6186025;23;20259;-91
2021/12/24 17:26:48;;;;;;;65.30;28.57;;;;;;;;;;6184122;23;20164;-93
2021/12/24 17:29:54;;;;;;;69.50;28.33;;;;;;;;;;6187160;23;20197;-92
2021/12/24 17:32:59;;;;;;;66.83;28.47;;;;;;;;;;6188341;23;20163;-91
2021/12/24 17:36:06;;;;;;;69.80;28.83;;;;;;;;;;6187624;23;20168;-93
2021/12/24 17:39:13;;;;;;;64.63;28.07;;;;;;;;;;6186080;23;20168;-92
2021/12/24 17:42:19;;;;;;;60.87;26.63;;;;;;;;;;6187083;23;20194;-93
2021/12/24 17:45:27;;;;;;;61.30;25.70;;;;;;;;;;6188089;23;20211;-92
2021/12/24 17:48:32;;;;;;;58.63;25.77;;;;;;;;;;6188593;23;20212;-92
2021/12/24 17:51:37;;;;;;;60.87;26.20;;;;;;;;;;6188798;23;20261;-93
2021/12/24 17:54:44;;;;;;;68.37;27.67;;;;;;;;;;6188752;23;20209;-90
2021/12/24 17:57:49;;;;;;;65.20;27.07;;;;;;;;;;6187839;23;20151;-92
2021/12/24 18:00:54;;;;;;;68.23;27.97;;;;;;;;;;6187630;23;20191;-93
2021/12/24 19:02:29;;;;;;;69.10;30.73;;;;;;;;;;6184049;23;20212;-91
2021/12/24 19:05:35;;;;;;;68.13;29.70;;;;;;;;;;6188720;23;20171;-91
2021/12/24 19:08:43;;;;;;;68.43;29.63;;;;;;;;;;6190710;23;20164;-91
2021/12/24 19:11:49;;;;;;;83.67;32.97;;;;;;;;;;6189539;23;20247;-92
2021/12/24 19:14:56;;;;;;;74.60;30.90;;;;;;;;;;6190047;23;20175;-92
2021/12/24 19:18:02;;;;;;;72.20;30.27;;;;;;;;;;6190478;23;20167;-91
2021/12/24 20:02:25;;;;;;;73.23;30.20;;;;;;;;;;6170058;23;20236;-92
2021/12/24 20:05:31;;;;;;;70.47;30.67;;;;;;;;;;6191244;23;20196;-92
2021/12/24 20:08:36;;;;;;;64.73;28.90;;;;;;;;;;6190959;23;20179;-92
2021/12/24 20:11:42;;;;;;;62.77;26.27;;;;;;;;;;6189921;23;20160;-92
2021/12/24 20:14:51;;;;;;;55.67;25.50;;;;;;;;;;6187210;23;20156;-90
2021/12/24 20:17:58;;;;;;;53.03;23.33;;;;;;;;;;6190222;23;20196;-90
2021/12/24 20:21:06;;;;;;;53.00;22.50;;;;;;;;;;6188277;23;20252;-92
2021/12/24 20:24:12;;;;;;;53.93;23.10;;;;;;;;;;6188626;23;20151;-92
2021/12/24 20:27:18;;;;;;;53.87;23.27;;;;;;;;;;6189221;23;20163;-91
2021/12/24 20:30:24;;;;;;;48.13;21.97;;;;;;;;;;6189556;23;20167;-92
2021/12/24 20:33:31;;;;;;;44.83;21.30;;;;;;;;;;6188207;23;20215;-92
2021/12/24 20:36:36;;;;;;;51.50;22.53;;;;;;;;;;6186877;23;20167;-92
2021/12/24 20:39:42;;;;;;;49.33;20.40;;;;;;;;;;6189399;23;20172;-92
2021/12/24 20:42:48;;;;;;;42.73;19.20;;;;;;;;;;6188406;23;20199;-93
2021/12/24 20:45:54;;;;;;;42.93;19.40;;;;;;;;;;6185087;23;20172;-91
2021/12/24 20:49:01;;;;;;;41.53;16.67;;;;;;;;;;6185975;23;20160;-90
2021/12/24 20:52:07;;;;;;;40.07;18.20;;;;;;;;;;6188085;23;20180;-92
2021/12/24 20:55:12;;;;;;;41.03;17.47;;;;;;;;;;6186288;23;20232;-92
2021/12/24 20:58:18;;;;;;;39.63;17.63;;;;;;;;;;6186997;23;20175;-92
2021/12/24 21:01:24;;;;;;;35.60;15.70;;;;;;;;;;6187056;23;20255;-92
2021/12/24 21:04:32;;;;;;;35.17;17.43;;;;;;;;;;6185345;23;20180;-92
2021/12/24 21:07:38;;;;;;;37.17;17.90;;;;;;;;;;6187729;23;20156;-90
2021/12/24 21:10:44;;;;;;;42.57;19.27;;;;;;;;;;6186125;23;20225;-92
2021/12/24 21:13:50;;;;;;;48.50;21.60;;;;;;;;;;6187277;23;20167;-91
2021/12/24 21:16:55;;;;;;;48.83;20.97;;;;;;;;;;6184985;23;20168;-92
2021/12/24 21:20:02;;;;;;;49.23;22.97;;;;;;;;;;6188119;23;20207;-91
2021/12/24 21:23:07;;;;;;;53.27;22.93;;;;;;;;;;6188201;23;20228;-91
2021/12/24 21:26:12;;;;;;;69.97;27.77;;;;;;;;;;6189026;23;20300;-93
2021/12/24 21:29:18;;;;;;;69.40;28.00;;;;;;;;;;6189168;23;20237;-93
2021/12/24 21:32:26;;;;;;;59.73;25.63;;;;;;;;;;6188599;23;20232;-92
2021/12/24 21:35:33;;;;;;;59.50;24.77;;;;;;;;;;6170725;23;20164;-91
2021/12/24 21:38:39;;;;;;;74.77;29.33;;;;;;;;;;6184085;23;20148;-91
2021/12/24 21:41:45;;;;;;;79.43;28.37;;;;;;;;;;6185826;23;20252;-93
2021/12/24 21:44:51;;;;;;;73.73;29.97;;;;;;;;;;6186442;23;20176;-91
2021/12/24 21:47:57;;;;;;;68.37;27.83;;;;;;;;;;6186814;23;20238;-91
2021/12/24 21:51:08;;;;;;;65.63;26.67;;;;;;;;;;6185188;23;20232;-92
2021/12/24 21:54:14;;;;;;;65.57;27.73;;;;;;;;;;6186120;23;20172;-91
2021/12/24 21:57:19;;;;;;;59.37;26.10;;;;;;;;;;6186759;23;20192;-93
2021/12/24 22:00:26;;;;;;;63.57;25.83;;;;;;;;;;6184243;23;20183;-93
2021/12/24 22:03:39;;;;;;;67.40;28.60;;;;;;;;;;6155817;23;20197;-94
2021/12/24 22:10:10;;;;;;;65.70;26.50;;;;;;;;;;6158068;23;20157;-91
2021/12/24 22:13:15;;;;;;;65.17;27.33;;;;;;;;;;6156431;23;20202;-93
2021/12/24 22:16:20;;;;;;;107.47;47.50;;;;;;;;;;6158984;23;20185;-91
2021/12/24 22:19:29;;;;;;;67.30;28.50;;;;;;;;;;6160674;23;20237;-93
2021/12/24 22:22:35;;;;;;;60.23;25.10;;;;;;;;;;6157354;23;20220;-91
2021/12/24 22:25:41;;;;;;;66.10;27.70;;;;;;;;;;6156187;23;20156;-92
2021/12/24 22:28:49;;;;;;;69.17;26.93;;;;;;;;;;6157824;23;20173;-90
2021/12/24 22:31:55;;;;;;;59.50;25.30;;;;;;;;;;6157669;23;20172;-93
2021/12/24 22:35:00;;;;;;;65.37;26.10;;;;;;;;;;6157710;23;20213;-92
2021/12/24 22:38:08;;;;;;;55.10;24.57;;;;;;;;;;6159428;23;20180;-92
2021/12/24 22:41:13;;;;;;;57.20;25.47;;;;;;;;;;6158516;23;20176;-92
2021/12/24 22:44:18;;;;;;;51.73;23.83;;;;;;;;;;6156842;23;20168;-92
2021/12/24 22:47:23;;;;;;;56.77;24.50;;;;;;;;;;6157889;23;20175;-92
2021/12/24 22:50:30;;;;;;;52.83;24.43;;;;;;;;;;6158152;23;20148;-91
2021/12/24 22:53:37;;;;;;;47.53;20.87;;;;;;;;;;6156302;23;20244;-92
2021/12/24 23:02:36;;;;;;;59.67;25.00;;;;;;;;;;6142137;23;20240;-92
2021/12/24 23:05:42;;;;;;;53.10;24.10;;;;;;;;;;6184265;23;20192;-91
2021/12/24 23:08:51;;;;;;;50.47;22.73;;;;;;;;;;6186197;23;20168;-91
2021/12/24 23:11:56;;;;;;;48.00;22.07;;;;;;;;;;6184548;23;20219;-93
2021/12/24 23:15:01;;;;;;;61.30;26.17;;;;;;;;;;6181569;23;20211;-91
2021/12/24 23:18:09;;;;;;;61.93;25.90;;;;;;;;;;6184792;23;20236;-90
2021/12/24 23:21:14;;;;;;;71.60;27.97;;;;;;;;;;6185672;23;20179;-90
2021/12/24 23:24:22;;;;;;;56.40;23.77;;;;;;;;;;6188541;23;20220;-92
2021/12/24 23:27:27;;;;;;;52.37;22.40;;;;;;;;;;6184922;23;20212;-92
2021/12/24 23:30:33;;;;;;;49.23;22.00;;;;;;;;;;6184047;23;20147;-91
2021/12/24 23:33:38;;;;;;;50.23;21.53;;;;;;;;;;6188083;23;20224;-92
2021/12/24 23:36:44;;;;;;;50.10;21.53;;;;;;;;;;6184673;23;20179;-92
2021/12/24 23:39:50;;;;;;;51.73;21.63;;;;;;;;;;6188361;23;20212;-92
2021/12/24 23:42:57;;;;;;;49.00;23.13;;;;;;;;;;6184563;23;20188;-90
2021/12/24 23:46:06;;;;;;;48.60;21.70;;;;;;;;;;6183130;23;20155;-92
2021/12/24 23:49:11;;;;;;;47.47;21.67;;;;;;;;;;6183288;23;20164;-92
2021/12/24 23:52:16;;;;;;;54.97;23.13;;;;;;;;;;6185552;23;20220;-92
2021/12/24 23:55:23;;;;;;;49.47;22.43;;;;;;;;;;6184605;23;20163;-92
2021/12/24 23:58:29;;;;;;;50.07;22.87;;;;;;;;;;6183758;23;20172;-91
